createdAt,value
2023-05-05T00:00:04.689Z,0.00
2023-05-05T00:01:04.627Z,0.00
2023-05-05T00:02:04.631Z,0.00
2023-05-05T00:03:04.688Z,0.00
2023-05-05T00:04:04.655Z,0.00
2023-05-05T00:05:04.536Z,0.00
2023-05-05T00:06:04.542Z,0.00
2023-05-05T00:07:04.518Z,0.00
2023-05-05T00:08:04.495Z,0.00
2023-05-05T00:09:04.478Z,0.00
2023-05-05T00:10:04.472Z,0.00
2023-05-05T00:11:04.464Z,0.00
2023-05-05T00:12:04.469Z,0.00
2023-05-05T00:13:04.442Z,0.00
2023-05-05T00:14:04.422Z,0.00
2023-05-05T00:15:04.406Z,0.00
2023-05-05T00:16:04.406Z,0.00
2023-05-05T00:17:04.431Z,0.00
2023-05-05T00:18:04.406Z,0.00
2023-05-05T00:19:04.359Z,0.00
2023-05-05T00:20:04.350Z,0.00
2023-05-05T00:21:04.374Z,0.00
2023-05-05T00:22:04.314Z,0.00
2023-05-05T00:23:04.303Z,0.00
2023-05-05T00:24:04.300Z,0.00
2023-05-05T00:25:04.277Z,0.00
2023-05-05T00:26:04.300Z,0.00
2023-05-05T00:27:04.334Z,0.00
2023-05-05T00:28:04.224Z,0.00
2023-05-05T00:29:04.239Z,0.00
2023-05-05T00:30:04.220Z,0.00
2023-05-05T00:31:04.262Z,0.00
2023-05-05T00:32:04.222Z,0.00
2023-05-05T00:33:04.275Z,0.00
2023-05-05T00:34:04.224Z,0.00
2023-05-05T00:35:04.178Z,0.00
2023-05-05T00:36:04.157Z,0.00
2023-05-05T00:37:04.115Z,0.00
2023-05-05T00:38:04.141Z,0.00
2023-05-05T00:39:04.085Z,0.00
2023-05-05T00:40:04.085Z,0.00
2023-05-05T00:41:04.074Z,0.00
2023-05-05T00:42:04.122Z,0.00
2023-05-05T00:43:04.032Z,0.00
2023-05-05T00:44:04.031Z,0.00
2023-05-05T00:45:04.008Z,0.00
2023-05-05T00:46:04.086Z,0.00
2023-05-05T00:47:04.000Z,0.00
2023-05-05T00:48:03.991Z,0.00
2023-05-05T00:49:04.004Z,0.00
2023-05-05T00:50:03.999Z,0.00
2023-05-05T00:51:03.989Z,0.00
2023-05-05T00:52:03.938Z,0.00
2023-05-05T00:53:03.952Z,0.00
2023-05-05T00:54:03.897Z,0.00
2023-05-05T00:55:03.898Z,0.00
2023-05-05T00:56:03.895Z,0.00
2023-05-05T00:57:03.867Z,0.00
2023-05-05T00:58:03.851Z,0.00
2023-05-05T00:59:03.849Z,0.00
2023-05-05T01:00:03.839Z,0.00
2023-05-05T01:01:03.810Z,0.00
2023-05-05T01:02:03.870Z,0.00
2023-05-05T01:03:03.866Z,0.00
2023-05-05T01:04:03.889Z,0.00
2023-05-05T01:05:03.772Z,0.00
2023-05-05T01:06:03.745Z,0.00
2023-05-05T01:07:03.724Z,0.00
2023-05-05T01:08:03.711Z,0.00
2023-05-05T01:09:03.704Z,0.00
2023-05-05T01:10:18.073Z,0.00
2023-05-05T01:11:04.678Z,0.00
2023-05-05T01:12:03.657Z,0.00
2023-05-05T01:13:03.737Z,0.00
2023-05-05T01:14:03.622Z,0.00
2023-05-05T01:15:03.626Z,0.00
2023-05-05T01:16:03.648Z,0.00
2023-05-05T01:17:03.585Z,0.00
2023-05-05T01:18:03.626Z,0.00
2023-05-05T01:19:03.584Z,0.00
2023-05-05T01:20:03.578Z,0.00
2023-05-05T01:21:03.532Z,0.00
2023-05-05T01:22:03.538Z,0.00
2023-05-05T01:23:03.512Z,0.00
2023-05-05T01:24:03.510Z,0.00
2023-05-05T01:25:03.520Z,0.00
2023-05-05T01:26:03.479Z,0.00
2023-05-05T01:27:03.449Z,0.00
2023-05-05T01:28:03.445Z,0.00
2023-05-05T01:29:03.466Z,0.00
2023-05-05T01:30:03.448Z,0.00
2023-05-05T01:31:03.417Z,0.00
2023-05-05T01:32:03.480Z,0.00
2023-05-05T01:33:03.386Z,0.00
2023-05-05T01:34:03.371Z,0.00
2023-05-05T01:35:03.649Z,0.00
2023-05-05T01:36:03.342Z,0.00
2023-05-05T01:37:03.334Z,0.00
2023-05-05T01:38:03.322Z,0.00
2023-05-05T01:39:03.323Z,0.00
2023-05-05T01:40:03.296Z,0.00
2023-05-05T01:41:03.294Z,0.00
2023-05-05T01:42:03.383Z,0.00
2023-05-05T01:43:03.251Z,0.00
2023-05-05T01:44:03.242Z,0.00
2023-05-05T01:45:03.260Z,0.00
2023-05-05T01:46:03.255Z,0.00
2023-05-05T01:47:03.204Z,0.00
2023-05-05T01:48:03.256Z,0.00
2023-05-05T01:49:03.226Z,0.00
2023-05-05T01:50:03.203Z,0.00
2023-05-05T01:51:03.191Z,0.00
2023-05-05T01:52:03.162Z,0.00
2023-05-05T01:53:03.123Z,0.00
2023-05-05T01:54:03.115Z,0.00
2023-05-05T01:55:03.098Z,0.00
2023-05-05T01:56:03.100Z,0.00
2023-05-05T01:57:03.076Z,0.00
2023-05-05T01:58:03.055Z,0.00
2023-05-05T01:59:03.031Z,0.00
2023-05-05T02:00:03.051Z,0.00
2023-05-05T02:01:03.040Z,0.00
2023-05-05T02:02:03.148Z,0.00
2023-05-05T02:03:03.027Z,0.00
2023-05-05T02:04:02.974Z,0.00
2023-05-05T02:05:02.963Z,0.00
2023-05-05T02:06:02.969Z,0.00
2023-05-05T02:07:03.133Z,0.00
2023-05-05T02:08:02.917Z,0.00
2023-05-05T02:09:02.904Z,0.00
2023-05-05T02:10:02.908Z,0.00
2023-05-05T02:11:02.892Z,0.00
2023-05-05T02:12:02.874Z,0.00
2023-05-05T02:13:02.935Z,0.00
2023-05-05T02:14:03.094Z,0.00
2023-05-05T02:15:02.834Z,0.00
2023-05-05T02:16:02.900Z,0.00
2023-05-05T02:17:02.816Z,0.00
2023-05-05T02:18:02.826Z,0.00
2023-05-05T02:19:02.773Z,0.00
2023-05-05T02:20:02.804Z,0.00
2023-05-05T02:21:02.784Z,0.00
2023-05-05T02:22:02.759Z,0.00
2023-05-05T02:23:02.720Z,0.00
2023-05-05T02:24:02.748Z,0.00
2023-05-05T02:25:02.741Z,0.00
2023-05-05T02:26:02.711Z,0.00
2023-05-05T02:27:02.668Z,0.00
2023-05-05T02:28:02.673Z,0.00
2023-05-05T02:29:02.642Z,0.00
2023-05-05T02:30:02.675Z,0.00
2023-05-05T02:31:02.655Z,0.00
2023-05-05T02:32:02.636Z,0.00
2023-05-05T02:33:02.630Z,0.00
2023-05-05T02:34:02.592Z,0.00
2023-05-05T02:35:02.573Z,0.00
2023-05-05T02:36:02.576Z,0.00
2023-05-05T02:37:02.567Z,0.00
2023-05-05T02:38:02.709Z,0.00
2023-05-05T02:39:02.861Z,0.00
2023-05-05T02:40:02.623Z,0.00
2023-05-05T02:41:02.506Z,0.00
2023-05-05T02:42:02.480Z,0.00
2023-05-05T02:43:02.535Z,0.00
2023-05-05T02:44:02.463Z,0.00
2023-05-05T02:45:02.478Z,0.00
2023-05-05T02:46:02.474Z,0.00
2023-05-05T02:47:02.409Z,0.00
2023-05-05T02:48:02.484Z,0.00
2023-05-05T02:49:02.407Z,0.00
2023-05-05T02:50:02.392Z,0.00
2023-05-05T02:51:02.366Z,0.00
2023-05-05T02:52:02.351Z,0.00
2023-05-05T02:53:02.427Z,0.00
2023-05-05T02:54:02.324Z,0.00
2023-05-05T02:55:02.338Z,0.00
2023-05-05T02:56:02.288Z,0.00
2023-05-05T02:57:02.293Z,0.00
2023-05-05T02:58:02.275Z,0.00
2023-05-05T02:59:02.261Z,0.00
2023-05-05T03:00:02.267Z,0.00
2023-05-05T03:01:02.235Z,0.00
2023-05-05T03:02:02.290Z,0.00
2023-05-05T03:03:02.267Z,0.00
2023-05-05T03:04:02.189Z,0.00
2023-05-05T03:05:02.188Z,4.00
2023-05-05T03:06:02.176Z,4.00
2023-05-05T03:07:02.137Z,0.00
2023-05-05T03:08:02.137Z,0.00
2023-05-05T03:09:02.130Z,4.00
2023-05-05T03:10:02.159Z,4.00
2023-05-05T03:11:02.113Z,0.00
2023-05-05T03:12:02.087Z,4.00
2023-05-05T03:13:02.104Z,4.00
2023-05-05T03:14:02.089Z,4.00
2023-05-05T03:15:02.062Z,4.00
2023-05-05T03:16:02.046Z,4.00
2023-05-05T03:17:02.031Z,8.00
2023-05-05T03:18:02.040Z,8.00
2023-05-05T03:19:01.994Z,8.00
2023-05-05T03:20:03.832Z,8.00
2023-05-05T03:21:01.968Z,8.00
2023-05-05T03:22:02.060Z,8.00
2023-05-05T03:23:01.967Z,16.00
2023-05-05T03:24:01.924Z,16.00
2023-05-05T03:25:01.977Z,16.00
2023-05-05T03:26:01.893Z,16.00
2023-05-05T03:27:01.915Z,20.00
2023-05-05T03:28:01.881Z,24.00
2023-05-05T03:29:01.893Z,24.00
2023-05-05T03:30:01.875Z,28.00
2023-05-05T03:31:01.853Z,28.00
2023-05-05T03:32:01.949Z,36.00
2023-05-05T03:33:01.885Z,36.00
2023-05-05T03:34:01.795Z,44.00
2023-05-05T03:35:01.858Z,48.00
2023-05-05T03:36:01.764Z,52.00
2023-05-05T03:37:01.789Z,56.00
2023-05-05T03:38:01.763Z,64.00
2023-05-05T03:39:01.758Z,72.00
2023-05-05T03:40:01.722Z,84.00
2023-05-05T03:41:01.734Z,92.00
2023-05-05T03:42:01.698Z,104.00
2023-05-05T03:43:01.689Z,120.00
2023-05-05T03:44:01.680Z,132.00
2023-05-05T03:45:01.663Z,148.00
2023-05-05T03:46:01.675Z,164.00
2023-05-05T03:47:01.645Z,184.00
2023-05-05T03:48:01.687Z,204.00
2023-05-05T03:49:01.612Z,224.00
2023-05-05T03:50:01.635Z,252.00
2023-05-05T03:51:01.571Z,276.00
2023-05-05T03:52:01.578Z,300.00
2023-05-05T03:53:01.583Z,324.00
2023-05-05T03:54:01.541Z,352.00
2023-05-05T03:55:01.554Z,376.00
2023-05-05T03:56:01.528Z,404.00
2023-05-05T03:57:01.518Z,428.00
2023-05-05T03:58:01.488Z,460.00
2023-05-05T03:59:01.481Z,492.00
2023-05-05T04:00:01.475Z,520.00
2023-05-05T04:01:01.448Z,548.00
2023-05-05T04:02:01.489Z,576.00
2023-05-05T04:03:01.552Z,600.00
2023-05-05T04:04:01.453Z,624.00
2023-05-05T04:05:01.409Z,648.00
2023-05-05T04:06:01.375Z,672.00
2023-05-05T04:07:01.410Z,692.00
2023-05-05T04:08:01.360Z,716.00
2023-05-05T04:09:01.356Z,744.00
2023-05-05T04:10:01.377Z,780.00
2023-05-05T04:11:01.319Z,816.00
2023-05-05T04:12:01.315Z,864.00
2023-05-05T04:13:01.373Z,912.00
2023-05-05T04:14:01.274Z,964.00
2023-05-05T04:15:01.275Z,1012.00
2023-05-05T04:16:01.297Z,1060.00
2023-05-05T04:17:01.276Z,1104.00
2023-05-05T04:18:01.242Z,1144.00
2023-05-05T04:19:01.213Z,1180.00
2023-05-05T04:20:01.241Z,1220.00
2023-05-05T04:21:01.185Z,1264.00
2023-05-05T04:22:01.179Z,1312.00
2023-05-05T04:23:01.201Z,1364.00
2023-05-05T04:24:01.175Z,1420.00
2023-05-05T04:25:01.154Z,1484.00
2023-05-05T04:26:01.158Z,1556.00
2023-05-05T04:27:01.123Z,1620.00
2023-05-05T04:28:01.105Z,1668.00
2023-05-05T04:29:01.085Z,1708.00
2023-05-05T04:30:01.101Z,1740.00
2023-05-05T04:31:01.268Z,1768.00
2023-05-05T04:32:01.042Z,1808.00
2023-05-05T04:33:01.128Z,1880.00
2023-05-05T04:34:01.049Z,1984.00
2023-05-05T04:35:01.038Z,2080.00
2023-05-05T04:36:01.018Z,2188.00
2023-05-05T04:37:00.996Z,2304.00
2023-05-05T04:38:00.966Z,2488.00
2023-05-05T04:39:00.985Z,4120.00
2023-05-05T04:40:00.975Z,12928.00
2023-05-05T04:41:00.934Z,19296.00
2023-05-05T04:42:00.916Z,14336.00
2023-05-05T04:43:00.929Z,11612.00
2023-05-05T04:44:00.932Z,13312.00
2023-05-05T04:45:01.615Z,15232.00
2023-05-05T04:46:00.875Z,14016.00
2023-05-05T04:47:00.855Z,17120.00
2023-05-05T04:48:00.855Z,15552.00
2023-05-05T04:49:00.840Z,14816.00
2023-05-05T04:50:00.814Z,17920.00
2023-05-05T04:51:00.812Z,16064.00
2023-05-05T04:52:00.784Z,14112.00
2023-05-05T04:53:00.765Z,10732.00
2023-05-05T04:54:00.764Z,8984.00
2023-05-05T04:55:00.756Z,16384.00
2023-05-05T04:56:00.742Z,31584.00
2023-05-05T04:57:00.731Z,39488.00
2023-05-05T04:58:00.700Z,34816.00
2023-05-05T04:59:00.696Z,21344.00
2023-05-05T05:00:00.688Z,17600.00
2023-05-05T05:01:00.686Z,20832.00
2023-05-05T05:02:00.703Z,17088.00
2023-05-05T05:03:00.760Z,23584.00
2023-05-05T05:04:00.668Z,21216.00
2023-05-05T05:05:00.636Z,17312.00
2023-05-05T05:06:00.617Z,22336.00
2023-05-05T05:07:00.629Z,25920.00
2023-05-05T05:08:00.602Z,18784.00
2023-05-05T05:09:00.600Z,20160.00
2023-05-05T05:10:00.574Z,16576.00
2023-05-05T05:11:00.558Z,16736.00
2023-05-05T05:12:00.522Z,26848.00
2023-05-05T05:13:00.548Z,54656.00
2023-05-05T05:14:00.496Z,40928.00
2023-05-05T05:15:00.534Z,47936.00
2023-05-05T05:16:00.599Z,34400.00
2023-05-05T05:17:00.463Z,13344.00
2023-05-05T05:18:00.484Z,13776.00
2023-05-05T05:19:01.755Z,16628.00
2023-05-05T05:20:00.431Z,11348.00
2023-05-05T05:21:00.419Z,9064.00
2023-05-05T05:22:00.384Z,8584.00
2023-05-05T05:23:00.382Z,8848.00
2023-05-05T05:24:00.371Z,9420.00
2023-05-05T05:25:00.406Z,9740.00
2023-05-05T05:26:00.334Z,9812.00
2023-05-05T05:27:00.340Z,9548.00
2023-05-05T05:28:09.616Z,9060.00
2023-05-05T05:29:01.338Z,9024.00
2023-05-05T05:30:00.292Z,9348.00
2023-05-05T05:31:00.326Z,9728.00
2023-05-05T05:32:00.295Z,10000.00
2023-05-05T05:33:00.270Z,10000.00
2023-05-05T05:34:00.248Z,9856.00
2023-05-05T05:35:00.232Z,9572.00
2023-05-05T05:36:00.210Z,9372.00
2023-05-05T05:37:00.213Z,10024.00
2023-05-05T05:38:00.208Z,10468.00
2023-05-05T05:39:00.170Z,10400.00
2023-05-05T05:40:00.208Z,10476.00
2023-05-05T05:41:00.172Z,10276.00
2023-05-05T05:42:00.136Z,9856.00
2023-05-05T05:43:00.336Z,9404.00
2023-05-05T05:44:00.151Z,9752.00
2023-05-05T05:45:00.188Z,10800.00
2023-05-05T05:46:00.129Z,11252.00
2023-05-05T05:47:00.075Z,10924.00
2023-05-05T05:48:00.118Z,10868.00
2023-05-05T05:49:00.066Z,10348.00
2023-05-05T05:50:00.041Z,9892.00
2023-05-05T05:51:00.007Z,10048.00
2023-05-05T05:51:59.985Z,9972.00
2023-05-05T05:53:00.025Z,10492.00
2023-05-05T05:53:59.987Z,11048.00
2023-05-05T05:54:59.956Z,11724.00
2023-05-05T05:55:59.978Z,12300.00
2023-05-05T05:57:00.012Z,12512.00
2023-05-05T05:57:59.916Z,11640.00
2023-05-05T05:58:59.967Z,11656.00
2023-05-05T06:00:04.763Z,13412.00
2023-05-05T06:00:59.886Z,15456.00
2023-05-05T06:01:59.884Z,15456.00
2023-05-05T06:03:00.039Z,14084.00
2023-05-05T06:03:59.958Z,13132.00
2023-05-05T06:04:59.834Z,11852.00
2023-05-05T06:05:59.815Z,11732.00
2023-05-05T06:06:59.814Z,12616.00
2023-05-05T06:07:59.794Z,14336.00
2023-05-05T06:08:59.804Z,15200.00
2023-05-05T06:10:02.973Z,14368.00
2023-05-05T06:11:00.794Z,12440.00
2023-05-05T06:11:59.747Z,11432.00
2023-05-05T06:12:59.794Z,12472.00
2023-05-05T06:13:59.716Z,13392.00
2023-05-05T06:14:59.700Z,13984.00
2023-05-05T06:15:59.771Z,14272.00
2023-05-05T06:16:59.682Z,12792.00
2023-05-05T06:17:59.699Z,11844.00
2023-05-05T06:18:59.669Z,13140.00
2023-05-05T06:19:59.641Z,21184.00
2023-05-05T06:20:59.630Z,26240.00
2023-05-05T06:21:59.605Z,24000.00
2023-05-05T06:22:59.606Z,22976.00
2023-05-05T06:23:59.609Z,12576.00
2023-05-05T06:24:59.632Z,17856.00
2023-05-05T06:25:59.576Z,48672.00
2023-05-05T06:26:59.556Z,40128.00
2023-05-05T06:27:59.551Z,7780.00
2023-05-05T06:28:59.561Z,6108.00
2023-05-05T06:29:59.524Z,12860.00
2023-05-05T06:30:59.530Z,28512.00
2023-05-05T06:31:59.480Z,54592.00
2023-05-05T06:32:59.534Z,73024.00
2023-05-05T06:33:59.469Z,70944.00
2023-05-05T06:34:59.456Z,49664.00
2023-05-05T06:35:59.454Z,26432.00
2023-05-05T06:36:59.432Z,28064.00
2023-05-05T06:37:59.436Z,30976.00
2023-05-05T06:38:59.439Z,40384.00
2023-05-05T06:39:59.382Z,29568.00
2023-05-05T06:40:59.371Z,40768.00
2023-05-05T06:41:59.380Z,27264.00
2023-05-05T06:42:59.353Z,42784.00
2023-05-05T06:43:59.336Z,47840.00
2023-05-05T06:44:59.324Z,56064.00
2023-05-05T06:45:59.304Z,59840.00
2023-05-05T06:46:59.349Z,37280.00
2023-05-05T06:47:59.337Z,33920.00
2023-05-05T06:48:59.310Z,38400.00
2023-05-05T06:49:59.262Z,42496.00
2023-05-05T06:50:59.266Z,55616.00
2023-05-05T06:51:59.230Z,46048.00
2023-05-05T06:52:59.216Z,33408.00
2023-05-05T06:53:59.247Z,35872.00
2023-05-05T06:54:59.215Z,36704.00
2023-05-05T06:55:59.171Z,46880.00
2023-05-05T06:56:59.754Z,50144.00
2023-05-05T06:57:59.150Z,37248.00
2023-05-05T06:58:59.181Z,45632.00
2023-05-05T06:59:59.150Z,49024.00
2023-05-05T07:00:59.211Z,38144.00
2023-05-05T07:01:59.112Z,47744.00
2023-05-05T07:02:59.144Z,40256.00
2023-05-05T07:03:59.129Z,36064.00
2023-05-05T07:04:59.103Z,46688.00
2023-05-05T07:05:59.054Z,36128.00
2023-05-05T07:06:59.070Z,40288.00
2023-05-05T07:07:59.029Z,44608.00
2023-05-05T07:08:59.038Z,31744.00
2023-05-05T07:09:59.038Z,27040.00
2023-05-05T07:10:59.002Z,20160.00
2023-05-05T07:11:58.986Z,11636.00
2023-05-05T07:12:59.161Z,7936.00
2023-05-05T07:13:58.972Z,7184.00
2023-05-05T07:14:58.946Z,7088.00
2023-05-05T07:15:58.936Z,6848.00
2023-05-05T07:16:59.057Z,6568.00
2023-05-05T07:17:58.958Z,6168.00
2023-05-05T07:18:58.911Z,5900.00
2023-05-05T07:19:58.954Z,5780.00
2023-05-05T07:20:58.898Z,5700.00
2023-05-05T07:21:58.906Z,5628.00
2023-05-05T07:22:58.866Z,5608.00
2023-05-05T07:23:58.854Z,5604.00
2023-05-05T07:24:58.830Z,5572.00
2023-05-05T07:25:58.814Z,5548.00
2023-05-05T07:26:58.793Z,5528.00
2023-05-05T07:27:58.773Z,5520.00
2023-05-05T07:28:58.964Z,5520.00
2023-05-05T07:29:58.776Z,5500.00
2023-05-05T07:30:58.748Z,5512.00
2023-05-05T07:31:58.751Z,5528.00
2023-05-05T07:32:58.770Z,5576.00
2023-05-05T07:33:58.721Z,5264.00
2023-05-05T07:34:58.696Z,5404.00
2023-05-05T07:35:58.689Z,6160.00
2023-05-05T07:36:58.677Z,6452.00
2023-05-05T07:37:58.667Z,6528.00
2023-05-05T07:38:58.665Z,6372.00
2023-05-05T07:39:58.649Z,6208.00
2023-05-05T07:40:58.633Z,6944.00
2023-05-05T07:41:58.624Z,6752.00
2023-05-05T07:42:58.598Z,6572.00
2023-05-05T07:43:58.633Z,6872.00
2023-05-05T07:44:58.582Z,7000.00
2023-05-05T07:45:58.656Z,7004.00
2023-05-05T07:46:58.557Z,6932.00
2023-05-05T07:47:58.646Z,6832.00
2023-05-05T07:48:58.550Z,6680.00
2023-05-05T07:49:58.595Z,6556.00
2023-05-05T07:50:58.508Z,6500.00
2023-05-05T07:51:58.487Z,6600.00
2023-05-05T07:53:10.647Z,6560.00
2023-05-05T07:53:59.470Z,6472.00
2023-05-05T07:54:58.452Z,6364.00
2023-05-05T07:55:58.439Z,5632.00
2023-05-05T07:56:58.436Z,6164.00
2023-05-05T07:57:58.404Z,6224.00
2023-05-05T07:58:58.408Z,5936.00
2023-05-05T07:59:58.383Z,6056.00
2023-05-05T08:00:58.374Z,6344.00
2023-05-05T08:01:58.390Z,6356.00
2023-05-05T08:02:58.418Z,5764.00
2023-05-05T08:03:58.365Z,5372.00
2023-05-05T08:04:58.332Z,5260.00
2023-05-05T08:05:58.323Z,5132.00
2023-05-05T08:06:58.287Z,5704.00
2023-05-05T08:07:58.286Z,6288.00
2023-05-05T08:08:58.308Z,6364.00
2023-05-05T08:09:58.262Z,6344.00
2023-05-05T08:10:58.249Z,6040.00
2023-05-05T08:11:58.566Z,5932.00
2023-05-05T08:12:58.260Z,5720.00
2023-05-05T08:13:58.242Z,5552.00
2023-05-05T08:14:58.198Z,5416.00
2023-05-05T08:15:58.200Z,5252.00
2023-05-05T08:16:58.188Z,5052.00
2023-05-05T08:17:58.186Z,4780.00
2023-05-05T08:18:58.359Z,4804.00
2023-05-05T08:19:58.137Z,4780.00
2023-05-05T08:20:58.135Z,4772.00
2023-05-05T08:22:00.570Z,4872.00
2023-05-05T08:22:58.114Z,4884.00
2023-05-05T08:23:58.082Z,4908.00
2023-05-05T08:24:58.090Z,4872.00
2023-05-05T08:25:58.066Z,4864.00
2023-05-05T08:26:58.045Z,4636.00
2023-05-05T08:27:58.057Z,4772.00
2023-05-05T08:28:58.074Z,4736.00
2023-05-05T08:29:58.022Z,4692.00
2023-05-05T08:30:58.001Z,4724.00
2023-05-05T08:31:58.094Z,4712.00
2023-05-05T08:32:58.066Z,4736.00
2023-05-05T08:33:57.976Z,4784.00
2023-05-05T08:34:57.982Z,4800.00
2023-05-05T08:35:57.954Z,4804.00
2023-05-05T08:36:57.924Z,4760.00
2023-05-05T08:37:59.201Z,4780.00
2023-05-05T08:38:57.926Z,4564.00
2023-05-05T08:39:57.893Z,4620.00
2023-05-05T08:40:57.892Z,4724.00
2023-05-05T08:41:58.415Z,4740.00
2023-05-05T08:42:57.879Z,4064.00
2023-05-05T08:43:57.855Z,4772.00
2023-05-05T08:44:58.999Z,4404.00
2023-05-05T08:45:57.872Z,4272.00
2023-05-05T08:46:57.910Z,4080.00
2023-05-05T08:47:57.831Z,4132.00
2023-05-05T08:48:57.819Z,4264.00
2023-05-05T08:49:57.768Z,4412.00
2023-05-05T08:50:59.974Z,4728.00
2023-05-05T08:51:58.066Z,5316.00
2023-05-05T08:52:57.818Z,6016.00
2023-05-05T08:53:57.734Z,5856.00
2023-05-05T08:54:57.699Z,6148.00
2023-05-05T08:55:57.703Z,5828.00
2023-05-05T08:56:57.669Z,5996.00
2023-05-05T08:57:57.977Z,5060.00
2023-05-05T08:58:57.638Z,6096.00
2023-05-05T08:59:57.643Z,6096.00
2023-05-05T09:00:57.643Z,5992.00
2023-05-05T09:01:57.667Z,6176.00
2023-05-05T09:02:57.739Z,6080.00
2023-05-05T09:03:57.597Z,6008.00
2023-05-05T09:04:57.594Z,5816.00
2023-05-05T09:05:57.568Z,5624.00
2023-05-05T09:06:57.539Z,5444.00
2023-05-05T09:07:57.555Z,5272.00
2023-05-05T09:08:59.562Z,5132.00
2023-05-05T09:09:57.526Z,5000.00
2023-05-05T09:10:57.501Z,4820.00
2023-05-05T09:11:57.479Z,4708.00
2023-05-05T09:12:57.562Z,4176.00
2023-05-05T09:13:57.478Z,4508.00
2023-05-05T09:14:59.248Z,4588.00
2023-05-05T09:15:57.486Z,4552.00
2023-05-05T09:16:57.458Z,4452.00
2023-05-05T09:17:57.635Z,3960.00
2023-05-05T09:18:57.391Z,4280.00
2023-05-05T09:19:57.393Z,4292.00
2023-05-05T09:20:59.376Z,4340.00
2023-05-05T09:21:57.363Z,4312.00
2023-05-05T09:22:57.348Z,4372.00
2023-05-05T09:24:00.346Z,4328.00
2023-05-05T09:24:58.299Z,4348.00
2023-05-05T09:25:57.300Z,4300.00
2023-05-05T09:26:59.086Z,4380.00
2023-05-05T09:27:58.003Z,4416.00
2023-05-05T09:28:57.271Z,4476.00
2023-05-05T09:29:57.944Z,4484.00
2023-05-05T09:30:57.482Z,4460.00
2023-05-05T09:31:57.243Z,4456.00
2023-05-05T09:32:57.363Z,4500.00
2023-05-05T09:33:57.198Z,4564.00
2023-05-05T09:34:57.190Z,4524.00
2023-05-05T09:35:57.175Z,4516.00
2023-05-05T09:36:57.175Z,4504.00
2023-05-05T09:37:57.154Z,4484.00
2023-05-05T09:38:58.774Z,4456.00
2023-05-05T09:39:57.121Z,4372.00
2023-05-05T09:40:57.121Z,4320.00
2023-05-05T09:41:57.147Z,4272.00
2023-05-05T09:42:57.091Z,4284.00
2023-05-05T09:43:57.082Z,4244.00
2023-05-05T09:44:59.667Z,4244.00
2023-05-05T09:45:57.082Z,4200.00
2023-05-05T09:46:57.043Z,4192.00
2023-05-05T09:48:00.187Z,4160.00
2023-05-05T09:48:57.014Z,4164.00
2023-05-05T09:49:56.990Z,4192.00
2023-05-05T09:50:56.998Z,4268.00
2023-05-05T09:51:57.014Z,4356.00
2023-05-05T09:52:56.973Z,4380.00
2023-05-05T09:53:56.963Z,4424.00
2023-05-05T09:54:56.940Z,4484.00
2023-05-05T09:55:56.932Z,4256.00
2023-05-05T09:56:56.924Z,4496.00
2023-05-05T09:57:56.929Z,4608.00
2023-05-05T09:58:58.675Z,4340.00
2023-05-05T09:59:56.880Z,4280.00
2023-05-05T10:00:56.854Z,4388.00
2023-05-05T10:01:57.079Z,4276.00
2023-05-05T10:02:56.853Z,4024.00
2023-05-05T10:03:56.824Z,4416.00
2023-05-05T10:04:56.874Z,4368.00
2023-05-05T10:05:56.802Z,4032.00
2023-05-05T10:06:56.808Z,4440.00
2023-05-05T10:07:56.769Z,3816.00
2023-05-05T10:08:56.756Z,4060.00
2023-05-05T10:09:56.759Z,4252.00
2023-05-05T10:10:56.743Z,4744.00
2023-05-05T10:11:56.721Z,4760.00
2023-05-05T10:12:56.747Z,4756.00
2023-05-05T10:13:56.708Z,4696.00
2023-05-05T10:14:56.693Z,4352.00
2023-05-05T10:15:56.765Z,4664.00
2023-05-05T10:16:56.662Z,4848.00
2023-05-05T10:18:07.028Z,4416.00
2023-05-05T10:18:57.625Z,4480.00
2023-05-05T10:19:56.631Z,4084.00
2023-05-05T10:20:56.597Z,4332.00
2023-05-05T10:21:56.595Z,4344.00
2023-05-05T10:22:56.577Z,4088.00
2023-05-05T10:23:56.559Z,4356.00
2023-05-05T10:24:56.565Z,4444.00
2023-05-05T10:25:56.528Z,4580.00
2023-05-05T10:26:56.537Z,4548.00
2023-05-05T10:27:56.585Z,4452.00
2023-05-05T10:28:56.494Z,4636.00
2023-05-05T10:29:56.517Z,4560.00
2023-05-05T10:30:56.491Z,4456.00
2023-05-05T10:31:56.549Z,4596.00
2023-05-05T10:33:09.141Z,4640.00
2023-05-05T10:33:57.483Z,4696.00
2023-05-05T10:34:56.413Z,4636.00
2023-05-05T10:35:56.420Z,4544.00
2023-05-05T10:36:56.437Z,4636.00
2023-05-05T10:37:56.395Z,4364.00
2023-05-05T10:38:56.373Z,4272.00
2023-05-05T10:39:56.378Z,4476.00
2023-05-05T10:40:56.340Z,4464.00
2023-05-05T10:41:56.353Z,4492.00
2023-05-05T10:42:56.343Z,4488.00
2023-05-05T10:43:56.310Z,4512.00
2023-05-05T10:44:56.332Z,4604.00
2023-05-05T10:45:56.382Z,4464.00
2023-05-05T10:46:56.284Z,4636.00
2023-05-05T10:47:56.292Z,4588.00
2023-05-05T10:48:56.352Z,4532.00
2023-05-05T10:49:56.228Z,4404.00
2023-05-05T10:50:56.258Z,4536.00
2023-05-05T10:51:56.230Z,4384.00
2023-05-05T10:52:56.200Z,4328.00
2023-05-05T10:53:56.207Z,3992.00
2023-05-05T10:54:56.159Z,3320.00
2023-05-05T10:55:56.175Z,4096.00
2023-05-05T10:56:56.145Z,4112.00
2023-05-05T10:57:56.140Z,3932.00
2023-05-05T10:59:00.249Z,3692.00
2023-05-05T10:59:56.116Z,3932.00
2023-05-05T11:00:56.115Z,3936.00
2023-05-05T11:01:56.083Z,3940.00
2023-05-05T11:02:57.042Z,3748.00
2023-05-05T11:03:56.110Z,3732.00
2023-05-05T11:04:56.030Z,3560.00
2023-05-05T11:05:56.035Z,3604.00
2023-05-05T11:06:56.011Z,3528.00
2023-05-05T11:07:56.010Z,3516.00
2023-05-05T11:08:56.006Z,3596.00
2023-05-05T11:09:56.022Z,3800.00
2023-05-05T11:10:56.006Z,3644.00
2023-05-05T11:11:55.948Z,3948.00
2023-05-05T11:12:55.973Z,4056.00
2023-05-05T11:13:55.916Z,4016.00
2023-05-05T11:14:55.942Z,4204.00
2023-05-05T11:15:55.939Z,4144.00
2023-05-05T11:16:55.939Z,4200.00
2023-05-05T11:17:56.005Z,3972.00
2023-05-05T11:18:56.104Z,3612.00
2023-05-05T11:19:55.852Z,3476.00
2023-05-05T11:20:55.878Z,3428.00
2023-05-05T11:21:55.831Z,3580.00
2023-05-05T11:22:55.804Z,3768.00
2023-05-05T11:23:55.807Z,4096.00
2023-05-05T11:24:55.775Z,4180.00
2023-05-05T11:25:55.790Z,4212.00
2023-05-05T11:26:55.749Z,4188.00
2023-05-05T11:27:55.750Z,4224.00
2023-05-05T11:28:55.734Z,4384.00
2023-05-05T11:29:55.715Z,4456.00
2023-05-05T11:30:55.825Z,4464.00
2023-05-05T11:31:55.717Z,4476.00
2023-05-05T11:32:55.710Z,4400.00
2023-05-05T11:33:55.685Z,3692.00
2023-05-05T11:34:55.654Z,4484.00
2023-05-05T11:35:58.216Z,4164.00
2023-05-05T11:36:55.641Z,3928.00
2023-05-05T11:37:55.655Z,3972.00
2023-05-05T11:38:56.364Z,3804.00
2023-05-05T11:39:56.790Z,4452.00
2023-05-05T11:40:55.568Z,3804.00
2023-05-05T11:41:55.566Z,4468.00
2023-05-05T11:42:55.539Z,4180.00
2023-05-05T11:43:55.552Z,4480.00
2023-05-05T11:44:55.525Z,4544.00
2023-05-05T11:45:55.578Z,4556.00
2023-05-05T11:46:55.502Z,4436.00
2023-05-05T11:47:55.501Z,4336.00
2023-05-05T11:48:55.468Z,4216.00
2023-05-05T11:49:55.457Z,4288.00
2023-05-05T11:50:55.477Z,4232.00
2023-05-05T11:51:55.433Z,4212.00
2023-05-05T11:52:55.441Z,3756.00
2023-05-05T11:53:56.880Z,3572.00
2023-05-05T11:54:55.397Z,3364.00
2023-05-05T11:55:55.389Z,3268.00
2023-05-05T11:56:55.390Z,3136.00
2023-05-05T11:57:55.352Z,3112.00
2023-05-05T11:58:55.358Z,2952.00
2023-05-05T11:59:55.361Z,2904.00
2023-05-05T12:00:55.313Z,2884.00
2023-05-05T12:01:55.303Z,2880.00
2023-05-05T12:02:55.436Z,2864.00
2023-05-05T12:03:55.608Z,2852.00
2023-05-05T12:04:55.404Z,2848.00
2023-05-05T12:05:55.260Z,2880.00
2023-05-05T12:06:55.310Z,2964.00
2023-05-05T12:07:55.271Z,3048.00
2023-05-05T12:08:55.217Z,3052.00
2023-05-05T12:09:55.233Z,3092.00
2023-05-05T12:10:55.185Z,3140.00
2023-05-05T12:11:55.176Z,3192.00
2023-05-05T12:12:55.823Z,3240.00
2023-05-05T12:13:55.147Z,3280.00
2023-05-05T12:14:55.150Z,3308.00
2023-05-05T12:15:55.132Z,3336.00
2023-05-05T12:16:55.114Z,3372.00
2023-05-05T12:17:55.132Z,3432.00
2023-05-05T12:18:55.092Z,3516.00
2023-05-05T12:19:55.155Z,3556.00
2023-05-05T12:20:55.101Z,3644.00
2023-05-05T12:21:55.055Z,3640.00